sensor_id;sensor_type;location;lat;lon;timestamp;P1;durP1;ratioP1;P2;durP2;ratioP2
54428;SDS011;40337;52.978;6.310;2022-10-31T00:01:32;20.33;;;13.05;;
54428;SDS011;40337;52.978;6.310;2022-10-31T00:03:59;18.15;;;12.13;;
54428;SDS011;40337;52.978;6.310;2022-10-31T00:06:25;18.33;;;12.35;;
54428;SDS011;40337;52.978;6.310;2022-10-31T00:08:55;18.15;;;13.07;;
54428;SDS011;40337;52.978;6.310;2022-10-31T00:11:24;17.75;;;13.63;;
54428;SDS011;40337;52.978;6.310;2022-10-31T00:13:50;17.67;;;13.00;;
54428;SDS011;40337;52.978;6.310;2022-10-31T00:16:16;19.00;;;13.10;;
54428;SDS011;40337;52.978;6.310;2022-10-31T00:18:52;19.20;;;13.20;;
54428;SDS011;40337;52.978;6.310;2022-10-31T00:21:19;19.83;;;13.02;;
54428;SDS011;40337;52.978;6.310;2022-10-31T00:23:46;17.85;;;12.52;;
54428;SDS011;40337;52.978;6.310;2022-10-31T00:26:11;20.83;;;13.88;;
54428;SDS011;40337;52.978;6.310;2022-10-31T00:28:37;19.02;;;13.45;;
54428;SDS011;40337;52.978;6.310;2022-10-31T00:31:04;18.70;;;13.18;;
54428;SDS011;40337;52.978;6.310;2022-10-31T00:33:32;19.95;;;13.95;;
54428;SDS011;40337;52.978;6.310;2022-10-31T00:36:00;17.83;;;13.68;;
54428;SDS011;40337;52.978;6.310;2022-10-31T00:38:25;18.92;;;13.88;;
54428;SDS011;40337;52.978;6.310;2022-10-31T00:40:51;21.98;;;14.23;;
54428;SDS011;40337;52.978;6.310;2022-10-31T00:43:17;20.40;;;15.27;;
54428;SDS011;40337;52.978;6.310;2022-10-31T00:45:42;23.17;;;15.57;;
54428;SDS011;40337;52.978;6.310;2022-10-31T00:48:08;19.50;;;14.80;;
54428;SDS011;40337;52.978;6.310;2022-10-31T00:50:34;21.77;;;15.60;;
54428;SDS011;40337;52.978;6.310;2022-10-31T00:53:00;19.40;;;15.40;;
54428;SDS011;40337;52.978;6.310;2022-10-31T00:55:25;18.55;;;15.35;;
54428;SDS011;40337;52.978;6.310;2022-10-31T00:57:51;20.42;;;15.27;;
54428;SDS011;40337;52.978;6.310;2022-10-31T01:00:17;21.95;;;14.60;;
54428;SDS011;40337;52.978;6.310;2022-10-31T01:02:42;22.60;;;16.08;;
54428;SDS011;40337;52.978;6.310;2022-10-31T01:05:09;22.95;;;15.98;;
54428;SDS011;40337;52.978;6.310;2022-10-31T01:07:35;19.67;;;15.63;;
54428;SDS011;40337;52.978;6.310;2022-10-31T01:10:02;22.38;;;15.80;;
54428;SDS011;40337;52.978;6.310;2022-10-31T01:12:28;19.75;;;16.13;;
54428;SDS011;40337;52.978;6.310;2022-10-31T01:14:54;21.70;;;16.00;;
54428;SDS011;40337;52.978;6.310;2022-10-31T01:17:20;21.08;;;15.57;;
54428;SDS011;40337;52.978;6.310;2022-10-31T01:19:45;22.13;;;15.98;;
54428;SDS011;40337;52.978;6.310;2022-10-31T01:22:11;21.70;;;16.67;;
54428;SDS011;40337;52.978;6.310;2022-10-31T01:24:36;24.77;;;17.42;;
54428;SDS011;40337;52.978;6.310;2022-10-31T01:27:02;22.40;;;17.08;;
54428;SDS011;40337;52.978;6.310;2022-10-31T01:29:28;23.02;;;17.42;;
54428;SDS011;40337;52.978;6.310;2022-10-31T01:31:53;22.58;;;16.35;;
54428;SDS011;40337;52.978;6.310;2022-10-31T01:34:19;21.55;;;16.58;;
54428;SDS011;40337;52.978;6.310;2022-10-31T01:36:45;20.38;;;15.35;;
54428;SDS011;40337;52.978;6.310;2022-10-31T01:39:15;20.77;;;16.02;;
54428;SDS011;40337;52.978;6.310;2022-10-31T01:41:43;23.63;;;16.42;;
54428;SDS011;40337;52.978;6.310;2022-10-31T01:52:00;20.85;;;16.15;;
54428;SDS011;40337;52.978;6.310;2022-10-31T01:54:32;22.05;;;16.30;;
54428;SDS011;40337;52.978;6.310;2022-10-31T01:57:02;23.92;;;16.38;;
54428;SDS011;40337;52.978;6.310;2022-10-31T01:59:30;21.35;;;17.15;;
54428;SDS011;40337;52.978;6.310;2022-10-31T02:01:59;22.65;;;16.92;;
54428;SDS011;40337;52.978;6.310;2022-10-31T02:04:25;21.88;;;16.67;;
54428;SDS011;40337;52.978;6.310;2022-10-31T02:07:05;20.98;;;16.77;;
54428;SDS011;40337;52.978;6.310;2022-10-31T02:09:40;23.20;;;17.30;;
54428;SDS011;40337;52.978;6.310;2022-10-31T02:12:07;20.67;;;17.13;;
54428;SDS011;40337;52.978;6.310;2022-10-31T02:14:35;22.15;;;17.10;;
54428;SDS011;40337;52.978;6.310;2022-10-31T02:17:02;21.48;;;17.40;;
54428;SDS011;40337;52.978;6.310;2022-10-31T02:19:35;19.65;;;16.05;;
54428;SDS011;40337;52.978;6.310;2022-10-31T02:22:26;22.35;;;16.58;;
54428;SDS011;40337;52.978;6.310;2022-10-31T02:33:36;18.70;;;15.35;;
54428;SDS011;40337;52.978;6.310;2022-10-31T02:36:14;23.50;;;17.08;;
54428;SDS011;40337;52.978;6.310;2022-10-31T02:39:10;19.98;;;15.35;;
54428;SDS011;40337;52.978;6.310;2022-10-31T02:44:27;20.77;;;17.50;;
54428;SDS011;40337;52.978;6.310;2022-10-31T02:47:01;22.42;;;17.00;;
54428;SDS011;40337;52.978;6.310;2022-10-31T02:49:32;25.05;;;18.05;;
54428;SDS011;40337;52.978;6.310;2022-10-31T02:52:24;22.77;;;18.30;;
54428;SDS011;40337;52.978;6.310;2022-10-31T02:54:51;24.30;;;18.85;;
54428;SDS011;40337;52.978;6.310;2022-10-31T02:57:17;23.85;;;18.20;;
54428;SDS011;40337;52.978;6.310;2022-10-31T02:59:52;24.33;;;18.17;;
54428;SDS011;40337;52.978;6.310;2022-10-31T03:02:42;25.90;;;18.88;;
54428;SDS011;40337;52.978;6.310;2022-10-31T03:08:25;21.30;;;18.10;;
54428;SDS011;40337;52.978;6.310;2022-10-31T03:11:00;21.98;;;16.80;;
54428;SDS011;40337;52.978;6.310;2022-10-31T03:13:35;21.10;;;16.90;;
54428;SDS011;40337;52.978;6.310;2022-10-31T03:18:39;18.60;;;16.58;;
54428;SDS011;40337;52.978;6.310;2022-10-31T03:21:16;21.58;;;17.05;;
54428;SDS011;40337;52.978;6.310;2022-10-31T03:23:57;23.42;;;16.98;;
54428;SDS011;40337;52.978;6.310;2022-10-31T03:26:25;19.65;;;16.15;;
54428;SDS011;40337;52.978;6.310;2022-10-31T03:28:55;20.63;;;15.90;;
54428;SDS011;40337;52.978;6.310;2022-10-31T03:31:25;20.13;;;15.73;;
54428;SDS011;40337;52.978;6.310;2022-10-31T03:33:53;18.75;;;16.48;;
54428;SDS011;40337;52.978;6.310;2022-10-31T03:36:22;21.70;;;16.23;;
54428;SDS011;40337;52.978;6.310;2022-10-31T03:38:49;19.65;;;16.58;;
54428;SDS011;40337;52.978;6.310;2022-10-31T03:41:17;21.67;;;16.90;;
54428;SDS011;40337;52.978;6.310;2022-10-31T03:43:48;23.02;;;17.00;;
54428;SDS011;40337;52.978;6.310;2022-10-31T03:46:37;18.95;;;15.98;;
54428;SDS011;40337;52.978;6.310;2022-10-31T03:49:03;19.27;;;16.23;;
54428;SDS011;40337;52.978;6.310;2022-10-31T03:51:38;19.80;;;16.00;;
54428;SDS011;40337;52.978;6.310;2022-10-31T03:56:49;19.77;;;16.85;;
54428;SDS011;40337;52.978;6.310;2022-10-31T03:59:21;22.90;;;17.52;;
54428;SDS011;40337;52.978;6.310;2022-10-31T04:01:49;20.25;;;16.08;;
54428;SDS011;40337;52.978;6.310;2022-10-31T04:04:18;21.63;;;15.82;;
54428;SDS011;40337;52.978;6.310;2022-10-31T04:06:45;20.48;;;17.10;;
54428;SDS011;40337;52.978;6.310;2022-10-31T04:09:11;20.27;;;16.80;;
54428;SDS011;40337;52.978;6.310;2022-10-31T04:11:40;22.13;;;17.45;;
54428;SDS011;40337;52.978;6.310;2022-10-31T04:14:11;20.40;;;16.92;;
54428;SDS011;40337;52.978;6.310;2022-10-31T04:16:37;20.40;;;16.52;;
54428;SDS011;40337;52.978;6.310;2022-10-31T04:19:06;20.50;;;16.60;;
54428;SDS011;40337;52.978;6.310;2022-10-31T04:21:31;20.95;;;17.08;;
54428;SDS011;40337;52.978;6.310;2022-10-31T04:23:57;21.40;;;16.98;;
54428;SDS011;40337;52.978;6.310;2022-10-31T04:26:23;19.95;;;16.25;;
54428;SDS011;40337;52.978;6.310;2022-10-31T04:28:49;21.98;;;16.85;;
54428;SDS011;40337;52.978;6.310;2022-10-31T04:31:14;20.70;;;17.08;;
54428;SDS011;40337;52.978;6.310;2022-10-31T04:33:40;19.83;;;17.13;;
54428;SDS011;40337;52.978;6.310;2022-10-31T04:36:06;21.83;;;17.70;;
54428;SDS011;40337;52.978;6.310;2022-10-31T04:38:31;22.40;;;17.35;;
54428;SDS011;40337;52.978;6.310;2022-10-31T04:40:57;23.45;;;18.00;;
54428;SDS011;40337;52.978;6.310;2022-10-31T04:43:23;20.52;;;16.42;;
54428;SDS011;40337;52.978;6.310;2022-10-31T04:45:48;21.38;;;17.73;;
54428;SDS011;40337;52.978;6.310;2022-10-31T04:48:14;19.63;;;16.70;;
54428;SDS011;40337;52.978;6.310;2022-10-31T04:50:39;21.25;;;16.75;;
54428;SDS011;40337;52.978;6.310;2022-10-31T04:53:05;19.60;;;16.25;;
54428;SDS011;40337;52.978;6.310;2022-10-31T04:55:31;19.17;;;16.55;;
54428;SDS011;40337;52.978;6.310;2022-10-31T04:57:56;18.27;;;16.08;;
54428;SDS011;40337;52.978;6.310;2022-10-31T05:00:22;20.55;;;17.15;;
54428;SDS011;40337;52.978;6.310;2022-10-31T05:02:49;20.52;;;17.60;;
54428;SDS011;40337;52.978;6.310;2022-10-31T05:05:17;22.20;;;17.75;;
54428;SDS011;40337;52.978;6.310;2022-10-31T05:07:45;21.55;;;18.30;;
54428;SDS011;40337;52.978;6.310;2022-10-31T05:10:13;21.55;;;17.80;;
54428;SDS011;40337;52.978;6.310;2022-10-31T05:12:47;20.88;;;18.15;;
54428;SDS011;40337;52.978;6.310;2022-10-31T05:15:15;22.48;;;17.40;;
54428;SDS011;40337;52.978;6.310;2022-10-31T05:17:41;23.67;;;18.35;;
54428;SDS011;40337;52.978;6.310;2022-10-31T05:20:07;23.75;;;19.33;;
54428;SDS011;40337;52.978;6.310;2022-10-31T05:22:33;23.08;;;19.10;;
54428;SDS011;40337;52.978;6.310;2022-10-31T05:24:58;19.20;;;17.17;;
54428;SDS011;40337;52.978;6.310;2022-10-31T05:27:24;22.95;;;18.15;;
54428;SDS011;40337;52.978;6.310;2022-10-31T05:29:49;23.38;;;18.90;;
54428;SDS011;40337;52.978;6.310;2022-10-31T05:32:15;23.85;;;19.08;;
54428;SDS011;40337;52.978;6.310;2022-10-31T05:34:40;21.13;;;18.00;;
54428;SDS011;40337;52.978;6.310;2022-10-31T05:37:06;21.08;;;16.95;;
54428;SDS011;40337;52.978;6.310;2022-10-31T05:39:31;19.25;;;16.17;;
54428;SDS011;40337;52.978;6.310;2022-10-31T05:41:57;19.95;;;16.45;;
54428;SDS011;40337;52.978;6.310;2022-10-31T05:44:22;20.30;;;17.05;;
54428;SDS011;40337;52.978;6.310;2022-10-31T05:46:48;19.88;;;17.15;;
54428;SDS011;40337;52.978;6.310;2022-10-31T05:49:13;20.00;;;18.00;;
54428;SDS011;40337;52.978;6.310;2022-10-31T05:51:39;21.83;;;18.17;;
54428;SDS011;40337;52.978;6.310;2022-10-31T05:54:04;22.42;;;19.35;;
54428;SDS011;40337;52.978;6.310;2022-10-31T05:56:30;24.02;;;19.02;;
54428;SDS011;40337;52.978;6.310;2022-10-31T05:58:56;22.90;;;18.95;;
54428;SDS011;40337;52.978;6.310;2022-10-31T06:01:21;22.50;;;19.25;;
54428;SDS011;40337;52.978;6.310;2022-10-31T06:03:47;21.52;;;18.17;;
54428;SDS011;40337;52.978;6.310;2022-10-31T06:06:12;24.88;;;21.25;;
54428;SDS011;40337;52.978;6.310;2022-10-31T06:08:38;25.13;;;20.33;;
54428;SDS011;40337;52.978;6.310;2022-10-31T06:11:04;27.77;;;21.30;;
54428;SDS011;40337;52.978;6.310;2022-10-31T06:13:29;25.80;;;21.20;;
54428;SDS011;40337;52.978;6.310;2022-10-31T06:15:55;24.33;;;20.40;;
54428;SDS011;40337;52.978;6.310;2022-10-31T06:18:20;24.05;;;20.55;;
54428;SDS011;40337;52.978;6.310;2022-10-31T06:20:46;25.55;;;20.30;;
54428;SDS011;40337;52.978;6.310;2022-10-31T06:23:11;21.33;;;17.85;;
54428;SDS011;40337;52.978;6.310;2022-10-31T06:25:37;30.48;;;18.70;;
54428;SDS011;40337;52.978;6.310;2022-10-31T06:28:02;21.88;;;15.98;;
54428;SDS011;40337;52.978;6.310;2022-10-31T06:30:28;18.20;;;15.10;;
54428;SDS011;40337;52.978;6.310;2022-10-31T06:32:54;18.13;;;16.23;;
54428;SDS011;40337;52.978;6.310;2022-10-31T06:35:20;16.95;;;15.02;;
54428;SDS011;40337;52.978;6.310;2022-10-31T06:37:52;38.17;;;17.65;;
54428;SDS011;40337;52.978;6.310;2022-10-31T06:40:18;102.10;;;16.67;;
54428;SDS011;40337;52.978;6.310;2022-10-31T06:42:44;16.25;;;14.35;;
54428;SDS011;40337;52.978;6.310;2022-10-31T06:45:09;21.08;;;13.35;;
54428;SDS011;40337;52.978;6.310;2022-10-31T06:47:35;17.67;;;13.80;;
54428;SDS011;40337;52.978;6.310;2022-10-31T06:50:00;16.02;;;14.23;;
54428;SDS011;40337;52.978;6.310;2022-10-31T06:52:26;19.17;;;14.35;;
54428;SDS011;40337;52.978;6.310;2022-10-31T06:54:52;16.60;;;12.75;;
54428;SDS011;40337;52.978;6.310;2022-10-31T06:57:17;18.70;;;14.98;;
54428;SDS011;40337;52.978;6.310;2022-10-31T06:59:43;15.60;;;13.50;;
54428;SDS011;40337;52.978;6.310;2022-10-31T07:02:09;14.77;;;13.27;;
54428;SDS011;40337;52.978;6.310;2022-10-31T07:04:35;12.60;;;11.20;;
54428;SDS011;40337;52.978;6.310;2022-10-31T07:07:01;12.95;;;11.02;;
54428;SDS011;40337;52.978;6.310;2022-10-31T07:09:27;10.13;;;9.00;;
54428;SDS011;40337;52.978;6.310;2022-10-31T07:11:52;19.77;;;13.75;;
54428;SDS011;40337;52.978;6.310;2022-10-31T07:14:18;16.20;;;12.68;;
54428;SDS011;40337;52.978;6.310;2022-10-31T07:16:47;20.52;;;13.15;;
54428;SDS011;40337;52.978;6.310;2022-10-31T07:19:14;22.70;;;13.50;;
54428;SDS011;40337;52.978;6.310;2022-10-31T07:21:39;15.52;;;10.80;;
54428;SDS011;40337;52.978;6.310;2022-10-31T07:24:05;13.48;;;10.82;;
54428;SDS011;40337;52.978;6.310;2022-10-31T07:26:30;11.70;;;10.07;;
54428;SDS011;40337;52.978;6.310;2022-10-31T07:28:56;11.40;;;10.18;;
54428;SDS011;40337;52.978;6.310;2022-10-31T07:31:21;14.52;;;11.35;;
54428;SDS011;40337;52.978;6.310;2022-10-31T07:33:47;11.38;;;10.15;;
54428;SDS011;40337;52.978;6.310;2022-10-31T07:36:12;12.50;;;10.77;;
54428;SDS011;40337;52.978;6.310;2022-10-31T07:38:38;13.77;;;12.35;;
54428;SDS011;40337;52.978;6.310;2022-10-31T07:41:03;14.77;;;10.77;;
54428;SDS011;40337;52.978;6.310;2022-10-31T07:43:29;13.23;;;11.82;;
54428;SDS011;40337;52.978;6.310;2022-10-31T07:45:55;17.02;;;13.05;;
54428;SDS011;40337;52.978;6.310;2022-10-31T07:48:20;14.35;;;11.95;;
54428;SDS011;40337;52.978;6.310;2022-10-31T07:50:46;20.45;;;12.77;;
54428;SDS011;40337;52.978;6.310;2022-10-31T07:53:12;21.25;;;16.58;;
54428;SDS011;40337;52.978;6.310;2022-10-31T07:55:39;22.38;;;15.75;;
54428;SDS011;40337;52.978;6.310;2022-10-31T07:58:06;17.85;;;14.38;;
54428;SDS011;40337;52.978;6.310;2022-10-31T08:00:34;17.75;;;15.45;;
54428;SDS011;40337;52.978;6.310;2022-10-31T08:03:01;22.35;;;14.77;;
54428;SDS011;40337;52.978;6.310;2022-10-31T08:05:29;23.30;;;18.92;;
54428;SDS011;40337;52.978;6.310;2022-10-31T08:07:55;20.27;;;16.83;;
54428;SDS011;40337;52.978;6.310;2022-10-31T08:10:21;20.52;;;17.05;;
54428;SDS011;40337;52.978;6.310;2022-10-31T08:12:47;21.95;;;17.33;;
54428;SDS011;40337;52.978;6.310;2022-10-31T08:15:19;34.63;;;22.30;;
54428;SDS011;40337;52.978;6.310;2022-10-31T08:17:45;20.63;;;18.00;;
54428;SDS011;40337;52.978;6.310;2022-10-31T08:20:10;21.70;;;19.02;;
54428;SDS011;40337;52.978;6.310;2022-10-31T08:22:36;22.60;;;19.13;;
54428;SDS011;40337;52.978;6.310;2022-10-31T08:25:01;23.65;;;19.52;;
54428;SDS011;40337;52.978;6.310;2022-10-31T08:27:27;22.92;;;19.95;;
54428;SDS011;40337;52.978;6.310;2022-10-31T08:29:52;20.60;;;18.50;;
54428;SDS011;40337;52.978;6.310;2022-10-31T08:32:18;23.33;;;19.83;;
54428;SDS011;40337;52.978;6.310;2022-10-31T08:34:43;23.60;;;20.17;;
54428;SDS011;40337;52.978;6.310;2022-10-31T08:37:09;20.40;;;17.02;;
54428;SDS011;40337;52.978;6.310;2022-10-31T08:39:35;22.02;;;18.23;;
54428;SDS011;40337;52.978;6.310;2022-10-31T08:42:00;20.35;;;18.17;;
54428;SDS011;40337;52.978;6.310;2022-10-31T08:44:26;20.85;;;18.13;;
54428;SDS011;40337;52.978;6.310;2022-10-31T08:46:51;21.83;;;18.23;;
54428;SDS011;40337;52.978;6.310;2022-10-31T08:49:17;23.05;;;18.20;;
54428;SDS011;40337;52.978;6.310;2022-10-31T08:51:42;20.48;;;18.40;;
54428;SDS011;40337;52.978;6.310;2022-10-31T08:54:08;22.85;;;19.58;;
54428;SDS011;40337;52.978;6.310;2022-10-31T08:56:33;25.27;;;20.77;;
54428;SDS011;40337;52.978;6.310;2022-10-31T08:58:59;25.73;;;20.08;;
54428;SDS011;40337;52.978;6.310;2022-10-31T09:01:24;24.63;;;21.10;;
54428;SDS011;40337;52.978;6.310;2022-10-31T09:03:50;24.00;;;20.10;;
54428;SDS011;40337;52.978;6.310;2022-10-31T09:06:15;24.80;;;20.95;;
54428;SDS011;40337;52.978;6.310;2022-10-31T09:08:41;21.77;;;19.48;;
54428;SDS011;40337;52.978;6.310;2022-10-31T09:11:06;24.55;;;19.17;;
54428;SDS011;40337;52.978;6.310;2022-10-31T09:13:32;22.77;;;20.33;;
54428;SDS011;40337;52.978;6.310;2022-10-31T09:15:58;24.13;;;20.95;;
54428;SDS011;40337;52.978;6.310;2022-10-31T09:18:23;25.45;;;21.63;;
54428;SDS011;40337;52.978;6.310;2022-10-31T09:20:49;25.23;;;21.27;;
54428;SDS011;40337;52.978;6.310;2022-10-31T09:23:16;27.38;;;19.95;;
54428;SDS011;40337;52.978;6.310;2022-10-31T09:25:43;24.48;;;19.70;;
54428;SDS011;40337;52.978;6.310;2022-10-31T09:28:17;22.38;;;19.40;;
54428;SDS011;40337;52.978;6.310;2022-10-31T09:30:45;22.13;;;19.58;;
54428;SDS011;40337;52.978;6.310;2022-10-31T09:33:12;24.42;;;19.65;;
54428;SDS011;40337;52.978;6.310;2022-10-31T09:35:39;24.70;;;19.20;;
54428;SDS011;40337;52.978;6.310;2022-10-31T09:38:06;25.42;;;20.38;;
54428;SDS011;40337;52.978;6.310;2022-10-31T09:40:38;22.95;;;19.58;;
54428;SDS011;40337;52.978;6.310;2022-10-31T09:43:21;24.25;;;19.30;;
54428;SDS011;40337;52.978;6.310;2022-10-31T09:51:45;24.80;;;19.80;;
54428;SDS011;40337;52.978;6.310;2022-10-31T09:56:56;23.90;;;20.42;;
54428;SDS011;40337;52.978;6.310;2022-10-31T09:59:30;22.35;;;19.88;;
54428;SDS011;40337;52.978;6.310;2022-10-31T10:09:52;23.15;;;20.75;;
54428;SDS011;40337;52.978;6.310;2022-10-31T10:15:29;27.27;;;22.48;;
54428;SDS011;40337;52.978;6.310;2022-10-31T10:18:08;30.98;;;23.08;;
54428;SDS011;40337;52.978;6.310;2022-10-31T10:24:00;21.30;;;18.58;;
54428;SDS011;40337;52.978;6.310;2022-10-31T10:26:34;21.60;;;18.88;;
54428;SDS011;40337;52.978;6.310;2022-10-31T10:29:03;23.27;;;19.60;;
54428;SDS011;40337;52.978;6.310;2022-10-31T10:31:42;24.08;;;19.13;;
54428;SDS011;40337;52.978;6.310;2022-10-31T10:36:39;23.23;;;20.63;;
54428;SDS011;40337;52.978;6.310;2022-10-31T10:39:11;25.10;;;22.05;;
54428;SDS011;40337;52.978;6.310;2022-10-31T10:41:45;25.63;;;20.92;;
54428;SDS011;40337;52.978;6.310;2022-10-31T10:44:32;23.63;;;20.08;;
54428;SDS011;40337;52.978;6.310;2022-10-31T10:47:17;25.73;;;21.45;;
54428;SDS011;40337;52.978;6.310;2022-10-31T10:50:02;23.67;;;18.03;;
54428;SDS011;40337;52.978;6.310;2022-10-31T10:52:43;22.55;;;19.88;;
54428;SDS011;40337;52.978;6.310;2022-10-31T10:58:01;24.38;;;20.00;;
54428;SDS011;40337;52.978;6.310;2022-10-31T11:00:38;23.45;;;21.02;;
54428;SDS011;40337;52.978;6.310;2022-10-31T11:03:08;23.58;;;19.73;;
54428;SDS011;40337;52.978;6.310;2022-10-31T11:08:07;22.98;;;19.05;;
54428;SDS011;40337;52.978;6.310;2022-10-31T11:10:33;24.08;;;20.15;;
54428;SDS011;40337;52.978;6.310;2022-10-31T11:15:39;24.67;;;19.08;;
54428;SDS011;40337;52.978;6.310;2022-10-31T11:18:19;26.50;;;19.88;;
54428;SDS011;40337;52.978;6.310;2022-10-31T11:20:51;23.40;;;18.50;;
54428;SDS011;40337;52.978;6.310;2022-10-31T11:23:19;28.05;;;20.05;;
54428;SDS011;40337;52.978;6.310;2022-10-31T11:25:50;24.50;;;20.05;;
54428;SDS011;40337;52.978;6.310;2022-10-31T11:28:25;22.63;;;18.95;;
54428;SDS011;40337;52.978;6.310;2022-10-31T11:30:55;20.27;;;17.90;;
54428;SDS011;40337;52.978;6.310;2022-10-31T11:33:30;23.08;;;18.00;;
54428;SDS011;40337;52.978;6.310;2022-10-31T11:38:52;25.23;;;19.40;;
54428;SDS011;40337;52.978;6.310;2022-10-31T11:41:28;22.60;;;18.45;;
54428;SDS011;40337;52.978;6.310;2022-10-31T11:43:58;20.27;;;16.73;;
54428;SDS011;40337;52.978;6.310;2022-10-31T11:46:37;22.52;;;17.45;;
54428;SDS011;40337;52.978;6.310;2022-10-31T11:49:05;18.77;;;16.13;;
54428;SDS011;40337;52.978;6.310;2022-10-31T11:51:58;19.67;;;15.52;;
54428;SDS011;40337;52.978;6.310;2022-10-31T11:54:28;19.27;;;16.48;;
54428;SDS011;40337;52.978;6.310;2022-10-31T11:57:21;17.60;;;14.77;;
54428;SDS011;40337;52.978;6.310;2022-10-31T11:59:58;15.30;;;13.68;;
54428;SDS011;40337;52.978;6.310;2022-10-31T12:02:24;17.23;;;14.10;;
54428;SDS011;40337;52.978;6.310;2022-10-31T12:05:02;14.82;;;12.65;;
54428;SDS011;40337;52.978;6.310;2022-10-31T12:07:32;15.68;;;13.20;;
54428;SDS011;40337;52.978;6.310;2022-10-31T12:09:58;14.90;;;13.30;;
54428;SDS011;40337;52.978;6.310;2022-10-31T12:26:22;13.10;;;11.38;;
54428;SDS011;40337;52.978;6.310;2022-10-31T12:29:17;14.30;;;11.45;;
54428;SDS011;40337;52.978;6.310;2022-10-31T12:32:16;13.25;;;11.35;;
54428;SDS011;40337;52.978;6.310;2022-10-31T12:37:39;14.00;;;10.75;;
54428;SDS011;40337;52.978;6.310;2022-10-31T12:46:03;10.05;;;8.00;;
54428;SDS011;40337;52.978;6.310;2022-10-31T12:48:52;10.43;;;7.38;;
54428;SDS011;40337;52.978;6.310;2022-10-31T12:54:45;10.88;;;7.25;;
54428;SDS011;40337;52.978;6.310;2022-10-31T12:57:06;11.68;;;7.22;;
54428;SDS011;40337;52.978;6.310;2022-10-31T13:00:00;11.27;;;6.50;;
54428;SDS011;40337;52.978;6.310;2022-10-31T13:02:56;12.07;;;6.72;;
54428;SDS011;40337;52.978;6.310;2022-10-31T13:05:37;8.63;;;5.90;;
54428;SDS011;40337;52.978;6.310;2022-10-31T13:08:16;9.90;;;6.47;;
54428;SDS011;40337;52.978;6.310;2022-10-31T13:10:47;11.23;;;6.50;;
54428;SDS011;40337;52.978;6.310;2022-10-31T13:13:24;13.27;;;6.63;;
54428;SDS011;40337;52.978;6.310;2022-10-31T13:15:59;9.07;;;6.28;;
54428;SDS011;40337;52.978;6.310;2022-10-31T13:18:35;10.03;;;6.37;;
54428;SDS011;40337;52.978;6.310;2022-10-31T13:21:09;11.18;;;6.03;;
54428;SDS011;40337;52.978;6.310;2022-10-31T13:23:40;9.75;;;6.07;;
54428;SDS011;40337;52.978;6.310;2022-10-31T13:31:50;11.38;;;6.50;;
54428;SDS011;40337;52.978;6.310;2022-10-31T13:40:02;9.77;;;5.88;;
54428;SDS011;40337;52.978;6.310;2022-10-31T13:42:50;10.57;;;5.82;;
54428;SDS011;40337;52.978;6.310;2022-10-31T13:45:21;9.85;;;5.32;;
54428;SDS011;40337;52.978;6.310;2022-10-31T13:48:16;9.27;;;5.40;;
54428;SDS011;40337;52.978;6.310;2022-10-31T13:51:05;9.63;;;4.70;;
54428;SDS011;40337;52.978;6.310;2022-10-31T13:56:20;9.45;;;4.30;;
54428;SDS011;40337;52.978;6.310;2022-10-31T13:58:58;7.93;;;4.25;;
54428;SDS011;40337;52.978;6.310;2022-10-31T14:01:34;9.32;;;4.10;;
54428;SDS011;40337;52.978;6.310;2022-10-31T14:04:02;9.60;;;4.15;;
54428;SDS011;40337;52.978;6.310;2022-10-31T14:06:40;10.02;;;4.13;;
54428;SDS011;40337;52.978;6.310;2022-10-31T14:09:21;8.48;;;3.78;;
54428;SDS011;40337;52.978;6.310;2022-10-31T14:11:51;8.50;;;3.65;;
54428;SDS011;40337;52.978;6.310;2022-10-31T14:14:18;8.27;;;3.53;;
54428;SDS011;40337;52.978;6.310;2022-10-31T14:16:45;9.27;;;3.40;;
54428;SDS011;40337;52.978;6.310;2022-10-31T14:19:17;8.40;;;3.70;;
54428;SDS011;40337;52.978;6.310;2022-10-31T14:21:45;7.50;;;3.60;;
54428;SDS011;40337;52.978;6.310;2022-10-31T14:29:27;7.15;;;3.13;;
54428;SDS011;40337;52.978;6.310;2022-10-31T14:31:58;6.97;;;3.10;;
54428;SDS011;40337;52.978;6.310;2022-10-31T14:42:52;8.95;;;3.10;;
54428;SDS011;40337;52.978;6.310;2022-10-31T14:48:24;7.75;;;3.00;;
54428;SDS011;40337;52.978;6.310;2022-10-31T14:51:16;10.13;;;3.88;;
54428;SDS011;40337;52.978;6.310;2022-10-31T14:53:54;8.80;;;3.05;;
54428;SDS011;40337;52.978;6.310;2022-10-31T14:56:31;11.32;;;5.30;;
54428;SDS011;40337;52.978;6.310;2022-10-31T14:59:09;10.77;;;5.03;;
54428;SDS011;40337;52.978;6.310;2022-10-31T15:01:39;10.25;;;5.95;;
54428;SDS011;40337;52.978;6.310;2022-10-31T15:04:25;22.02;;;15.32;;
54428;SDS011;40337;52.978;6.310;2022-10-31T15:07:00;11.43;;;6.15;;
54428;SDS011;40337;52.978;6.310;2022-10-31T15:09:35;10.95;;;5.93;;
54428;SDS011;40337;52.978;6.310;2022-10-31T15:14:53;11.73;;;5.82;;
54428;SDS011;40337;52.978;6.310;2022-10-31T15:17:20;11.15;;;6.22;;
54428;SDS011;40337;52.978;6.310;2022-10-31T15:19:46;10.48;;;6.45;;
54428;SDS011;40337;52.978;6.310;2022-10-31T15:22:19;12.90;;;6.10;;
54428;SDS011;40337;52.978;6.310;2022-10-31T15:24:48;9.80;;;6.35;;
54428;SDS011;40337;52.978;6.310;2022-10-31T15:27:20;8.02;;;5.38;;
54428;SDS011;40337;52.978;6.310;2022-10-31T15:29:54;11.40;;;6.70;;
54428;SDS011;40337;52.978;6.310;2022-10-31T15:32:27;12.82;;;6.57;;
54428;SDS011;40337;52.978;6.310;2022-10-31T15:34:54;12.18;;;6.70;;
54428;SDS011;40337;52.978;6.310;2022-10-31T15:37:23;9.60;;;6.30;;
54428;SDS011;40337;52.978;6.310;2022-10-31T15:39:50;11.93;;;6.35;;
54428;SDS011;40337;52.978;6.310;2022-10-31T15:42:20;11.23;;;6.18;;
54428;SDS011;40337;52.978;6.310;2022-10-31T15:44:59;8.50;;;6.15;;
54428;SDS011;40337;52.978;6.310;2022-10-31T15:47:36;10.27;;;6.68;;
54428;SDS011;40337;52.978;6.310;2022-10-31T15:50:02;10.40;;;6.70;;
54428;SDS011;40337;52.978;6.310;2022-10-31T15:52:44;12.43;;;6.65;;
54428;SDS011;40337;52.978;6.310;2022-10-31T15:57:44;11.02;;;6.63;;
54428;SDS011;40337;52.978;6.310;2022-10-31T16:00:28;9.27;;;6.32;;
54428;SDS011;40337;52.978;6.310;2022-10-31T16:13:38;13.50;;;5.80;;
54428;SDS011;40337;52.978;6.310;2022-10-31T16:16:16;8.80;;;5.07;;
54428;SDS011;40337;52.978;6.310;2022-10-31T16:18:45;8.95;;;5.18;;
54428;SDS011;40337;52.978;6.310;2022-10-31T16:21:11;9.35;;;5.00;;
54428;SDS011;40337;52.978;6.310;2022-10-31T16:23:38;8.20;;;5.25;;
54428;SDS011;40337;52.978;6.310;2022-10-31T16:26:08;7.47;;;4.95;;
54428;SDS011;40337;52.978;6.310;2022-10-31T16:28:35;6.55;;;4.97;;
54428;SDS011;40337;52.978;6.310;2022-10-31T16:31:01;10.98;;;4.97;;
54428;SDS011;40337;52.978;6.310;2022-10-31T16:33:38;7.75;;;5.05;;
54428;SDS011;40337;52.978;6.310;2022-10-31T16:38:56;9.82;;;5.10;;
54428;SDS011;40337;52.978;6.310;2022-10-31T16:41:23;10.20;;;5.55;;
54428;SDS011;40337;52.978;6.310;2022-10-31T16:43:49;9.20;;;5.32;;
54428;SDS011;40337;52.978;6.310;2022-10-31T16:46:20;9.98;;;5.78;;
54428;SDS011;40337;52.978;6.310;2022-10-31T16:48:47;8.98;;;5.80;;
54428;SDS011;40337;52.978;6.310;2022-10-31T16:51:13;9.35;;;6.78;;
54428;SDS011;40337;52.978;6.310;2022-10-31T16:53:38;11.60;;;6.80;;
54428;SDS011;40337;52.978;6.310;2022-10-31T16:56:04;9.50;;;7.32;;
54428;SDS011;40337;52.978;6.310;2022-10-31T16:58:31;9.98;;;7.13;;
54428;SDS011;40337;52.978;6.310;2022-10-31T17:01:01;13.10;;;8.73;;